sensor_id;sensor_type;location;lat;lon;timestamp;pressure;altitude;pressure_sealevel;temperature;humidity
4528;BME280;62320;51.520;6.818;2024-03-08T00:05:43;101389.84;;;4.46;100.00
4528;BME280;62320;51.520;6.818;2024-03-08T00:15:44;101379.28;;;4.37;100.00
4528;BME280;62320;51.520;6.818;2024-03-08T00:25:46;101366.19;;;4.29;100.00
4528;BME280;62320;51.520;6.818;2024-03-08T00:35:48;101359.78;;;4.17;100.00
4528;BME280;62320;51.520;6.818;2024-03-08T00:45:49;101360.41;;;4.10;100.00
4528;BME280;62320;51.520;6.818;2024-03-08T00:55:51;101354.84;;;3.98;100.00
4528;BME280;62320;51.520;6.818;2024-03-08T01:05:52;101346.19;;;3.94;100.00
4528;BME280;62320;51.520;6.818;2024-03-08T01:15:54;101332.19;;;3.85;100.00
4528;BME280;62320;51.520;6.818;2024-03-08T01:25:57;101315.81;;;3.80;100.00
4528;BME280;62320;51.520;6.818;2024-03-08T01:35:58;101307.75;;;3.69;100.00
4528;BME280;62320;51.520;6.818;2024-03-08T01:46:00;101299.78;;;3.61;100.00
4528;BME280;62320;51.520;6.818;2024-03-08T01:56:03;101294.44;;;3.54;100.00
4528;BME280;62320;51.520;6.818;2024-03-08T02:06:05;101284.78;;;3.47;100.00
4528;BME280;62320;51.520;6.818;2024-03-08T02:16:09;101286.25;;;3.40;100.00
4528;BME280;62320;51.520;6.818;2024-03-08T02:26:11;101261.28;;;3.33;100.00
4528;BME280;62320;51.520;6.818;2024-03-08T02:36:13;101254.16;;;3.25;100.00
4528;BME280;62320;51.520;6.818;2024-03-08T02:46:14;101250.97;;;3.08;100.00
4528;BME280;62320;51.520;6.818;2024-03-08T02:56:16;101249.75;;;2.99;100.00
4528;BME280;62320;51.520;6.818;2024-03-08T03:06:18;101231.63;;;2.93;100.00
4528;BME280;62320;51.520;6.818;2024-03-08T03:16:22;101222.00;;;2.85;100.00
4528;BME280;62320;51.520;6.818;2024-03-08T03:26:24;101223.53;;;2.82;100.00
4528;BME280;62320;51.520;6.818;2024-03-08T03:36:25;101211.66;;;2.82;100.00
4528;BME280;62320;51.520;6.818;2024-03-08T03:46:27;101205.81;;;2.63;100.00
4528;BME280;62320;51.520;6.818;2024-03-08T03:56:28;101200.63;;;2.61;100.00
4528;BME280;62320;51.520;6.818;2024-03-08T04:06:29;101201.91;;;2.30;100.00
4528;BME280;62320;51.520;6.818;2024-03-08T04:16:31;101195.44;;;2.38;100.00
4528;BME280;62320;51.520;6.818;2024-03-08T04:26:33;101183.84;;;2.46;100.00
4528;BME280;62320;51.520;6.818;2024-03-08T04:36:35;101174.09;;;2.36;100.00
4528;BME280;62320;51.520;6.818;2024-03-08T04:46:37;101166.19;;;2.30;100.00
4528;BME280;62320;51.520;6.818;2024-03-08T04:56:38;101167.53;;;2.20;100.00
4528;BME280;62320;51.520;6.818;2024-03-08T05:06:40;101153.25;;;2.25;100.00
4528;BME280;62320;51.520;6.818;2024-03-08T05:16:45;101140.97;;;2.15;100.00
4528;BME280;62320;51.520;6.818;2024-03-08T05:26:50;101134.00;;;2.11;100.00
4528;BME280;62320;51.520;6.818;2024-03-08T05:36:52;101133.88;;;2.08;100.00
4528;BME280;62320;51.520;6.818;2024-03-08T05:46:55;101130.81;;;1.96;100.00
4528;BME280;62320;51.520;6.818;2024-03-08T05:56:57;101123.91;;;1.93;100.00
4528;BME280;62320;51.520;6.818;2024-03-08T06:06:58;101118.34;;;1.81;100.00
4528;BME280;62320;51.520;6.818;2024-03-08T06:17:00;101112.69;;;1.88;100.00
4528;BME280;62320;51.520;6.818;2024-03-08T06:27:01;101108.25;;;1.84;100.00
4528;BME280;62320;51.520;6.818;2024-03-08T06:37:03;101104.44;;;1.95;100.00
4528;BME280;62320;51.520;6.818;2024-03-08T06:47:04;101106.63;;;2.07;100.00
4528;BME280;62320;51.520;6.818;2024-03-08T06:57:07;101113.03;;;2.18;100.00
4528;BME280;62320;51.520;6.818;2024-03-08T07:07:08;101101.66;;;2.32;100.00
4528;BME280;62320;51.520;6.818;2024-03-08T07:17:12;101099.09;;;2.32;100.00
4528;BME280;62320;51.520;6.818;2024-03-08T07:27:13;101098.81;;;2.69;100.00
4528;BME280;62320;51.520;6.818;2024-03-08T07:37:15;101088.97;;;2.79;100.00
4528;BME280;62320;51.520;6.818;2024-03-08T07:47:16;101089.22;;;2.85;100.00
4528;BME280;62320;51.520;6.818;2024-03-08T07:57:22;101076.09;;;3.00;100.00
4528;BME280;62320;51.520;6.818;2024-03-08T08:07:23;101072.34;;;3.14;100.00
4528;BME280;62320;51.520;6.818;2024-03-08T08:17:25;101055.69;;;3.25;100.00
4528;BME280;62320;51.520;6.818;2024-03-08T08:27:26;101051.13;;;3.40;100.00
4528;BME280;62320;51.520;6.818;2024-03-08T08:37:28;101032.06;;;3.57;100.00
4528;BME280;62320;51.520;6.818;2024-03-08T08:47:29;101000.31;;;3.78;100.00
4528;BME280;62320;51.520;6.818;2024-03-08T08:57:31;101002.94;;;4.07;100.00
4528;BME280;62320;51.520;6.818;2024-03-08T09:07:34;100991.31;;;4.18;100.00
4528;BME280;62320;51.520;6.818;2024-03-08T09:17:35;100980.91;;;4.41;100.00
4528;BME280;62320;51.520;6.818;2024-03-08T09:27:37;100977.22;;;4.62;100.00
4528;BME280;62320;51.520;6.818;2024-03-08T09:37:40;100951.56;;;4.93;100.00
4528;BME280;62320;51.520;6.818;2024-03-08T09:47:43;100936.59;;;5.09;100.00
4528;BME280;62320;51.520;6.818;2024-03-08T09:57:46;100929.34;;;5.27;100.00
4528;BME280;62320;51.520;6.818;2024-03-08T10:08:08;100914.28;;;5.40;100.00
4528;BME280;62320;51.520;6.818;2024-03-08T10:18:10;100902.72;;;5.59;100.00
4528;BME280;62320;51.520;6.818;2024-03-08T10:28:11;100885.16;;;5.77;100.00
4528;BME280;62320;51.520;6.818;2024-03-08T10:38:17;100865.03;;;5.95;100.00
4528;BME280;62320;51.520;6.818;2024-03-08T10:48:31;100854.44;;;6.20;100.00
4528;BME280;62320;51.520;6.818;2024-03-08T10:58:39;100837.47;;;6.28;100.00
4528;BME280;62320;51.520;6.818;2024-03-08T11:08:41;100824.88;;;6.42;100.00
4528;BME280;62320;51.520;6.818;2024-03-08T11:18:42;100814.06;;;6.61;100.00
4528;BME280;62320;51.520;6.818;2024-03-08T11:28:44;100796.34;;;6.76;100.00
4528;BME280;62320;51.520;6.818;2024-03-08T11:38:46;100787.16;;;6.90;100.00
4528;BME280;62320;51.520;6.818;2024-03-08T11:48:54;100770.19;;;7.03;100.00
4528;BME280;62320;51.520;6.818;2024-03-08T11:58:57;100754.97;;;7.18;100.00
4528;BME280;62320;51.520;6.818;2024-03-08T12:08:59;100723.50;;;7.36;100.00
4528;BME280;62320;51.520;6.818;2024-03-08T12:19:00;100704.88;;;7.56;100.00
4528;BME280;62320;51.520;6.818;2024-03-08T12:29:15;100680.06;;;7.64;100.00
4528;BME280;62320;51.520;6.818;2024-03-08T12:39:30;100666.59;;;7.88;100.00
4528;BME280;62320;51.520;6.818;2024-03-08T12:49:31;100649.53;;;8.01;100.00
4528;BME280;62320;51.520;6.818;2024-03-08T12:59:33;100628.25;;;8.23;100.00
4528;BME280;62320;51.520;6.818;2024-03-08T13:09:34;100612.91;;;8.35;100.00
4528;BME280;62320;51.520;6.818;2024-03-08T13:19:38;100588.91;;;8.43;100.00
4528;BME280;62320;51.520;6.818;2024-03-08T13:29:40;100579.63;;;8.70;100.00
4528;BME280;62320;51.520;6.818;2024-03-08T13:39:42;100552.13;;;8.78;100.00
4528;BME280;62320;51.520;6.818;2024-03-08T13:49:47;100535.03;;;9.02;98.96
4528;BME280;62320;51.520;6.818;2024-03-08T13:59:52;100517.91;;;9.33;87.88
4528;BME280;62320;51.520;6.818;2024-03-08T14:09:53;100505.84;;;9.23;91.18
4528;BME280;62320;51.520;6.818;2024-03-08T14:19:54;100490.38;;;9.32;92.89
4528;BME280;62320;51.520;6.818;2024-03-08T14:29:56;100469.75;;;9.47;89.71
4528;BME280;62320;51.520;6.818;2024-03-08T14:39:57;100450.78;;;9.65;88.43
4528;BME280;62320;51.520;6.818;2024-03-08T14:49:59;100452.50;;;9.61;91.67
4528;BME280;62320;51.520;6.818;2024-03-08T15:00:01;100424.94;;;9.68;89.87
4528;BME280;62320;51.520;6.818;2024-03-08T15:10:10;100412.94;;;9.67;89.51
4528;BME280;62320;51.520;6.818;2024-03-08T15:20:13;100400.00;;;9.68;90.01
4528;BME280;62320;51.520;6.818;2024-03-08T15:30:31;100377.66;;;9.67;87.80
4528;BME280;62320;51.520;6.818;2024-03-08T15:40:35;100364.69;;;9.75;83.10
4528;BME280;62320;51.520;6.818;2024-03-08T15:50:36;100361.31;;;9.70;89.17
4528;BME280;62320;51.520;6.818;2024-03-08T16:00:38;100359.56;;;9.66;90.20
4528;BME280;62320;51.520;6.818;2024-03-08T16:10:53;100363.03;;;9.65;86.06
4528;BME280;62320;51.520;6.818;2024-03-08T16:20:58;100354.44;;;9.58;93.40
4528;BME280;62320;51.520;6.818;2024-03-08T16:30:59;100354.44;;;9.55;94.57
4528;BME280;62320;51.520;6.818;2024-03-08T16:41:00;100350.13;;;9.50;91.84
4528;BME280;62320;51.520;6.818;2024-03-08T16:51:02;100336.41;;;9.43;97.75
4528;BME280;62320;51.520;6.818;2024-03-08T17:01:05;100341.56;;;9.34;97.89
4528;BME280;62320;51.520;6.818;2024-03-08T17:11:07;100343.31;;;9.26;97.16
4528;BME280;62320;51.520;6.818;2024-03-08T17:21:12;100348.47;;;9.18;94.51
4528;BME280;62320;51.520;6.818;2024-03-08T17:31:14;100343.31;;;9.11;90.72
4528;BME280;62320;51.520;6.818;2024-03-08T17:41:16;100334.75;;;9.00;90.90
4528;BME280;62320;51.520;6.818;2024-03-08T17:51:25;100358.81;;;8.93;91.95
4528;BME280;62320;51.520;6.818;2024-03-08T18:01:30;100368.28;;;8.83;93.06
4528;BME280;62320;51.520;6.818;2024-03-08T18:11:38;100360.50;;;8.73;90.70
4528;BME280;62320;51.520;6.818;2024-03-08T18:21:40;100357.94;;;8.65;91.13
4528;BME280;62320;51.520;6.818;2024-03-08T18:31:41;100338.19;;;8.58;91.05
4528;BME280;62320;51.520;6.818;2024-03-08T18:41:43;100329.59;;;8.53;93.87
4528;BME280;62320;51.520;6.818;2024-03-08T18:51:45;100333.84;;;8.43;100.00
4528;BME280;62320;51.520;6.818;2024-03-08T19:01:50;100326.03;;;8.21;100.00
4528;BME280;62320;51.520;6.818;2024-03-08T19:11:52;100305.44;;;8.12;100.00
4528;BME280;62320;51.520;6.818;2024-03-08T19:21:55;100298.56;;;8.02;100.00
4528;BME280;62320;51.520;6.818;2024-03-08T19:31:56;100290.78;;;7.89;100.00
4528;BME280;62320;51.520;6.818;2024-03-08T19:41:58;100289.03;;;7.81;100.00
4528;BME280;62320;51.520;6.818;2024-03-08T19:51:59;100289.84;;;7.72;100.00
4528;BME280;62320;51.520;6.818;2024-03-08T20:02:01;100282.13;;;7.66;100.00
4528;BME280;62320;51.520;6.818;2024-03-08T20:12:03;100270.91;;;7.57;100.00
4528;BME280;62320;51.520;6.818;2024-03-08T20:22:09;100253.75;;;7.47;100.00
4528;BME280;62320;51.520;6.818;2024-03-08T20:32:10;100247.69;;;7.37;100.00
4528;BME280;62320;51.520;6.818;2024-03-08T20:42:13;100229.66;;;7.34;100.00
4528;BME280;62320;51.520;6.818;2024-03-08T20:52:15;100229.66;;;7.28;100.00
4528;BME280;62320;51.520;6.818;2024-03-08T21:02:16;100215.91;;;7.23;100.00
4528;BME280;62320;51.520;6.818;2024-03-08T21:12:18;100208.16;;;7.15;100.00
4528;BME280;62320;51.520;6.818;2024-03-08T21:22:22;100206.41;;;7.07;100.00
4528;BME280;62320;51.520;6.818;2024-03-08T21:32:23;100203.84;;;7.04;100.00
4528;BME280;62320;51.520;6.818;2024-03-08T21:42:25;100206.34;;;6.98;100.00
4528;BME280;62320;51.520;6.818;2024-03-08T21:52:27;100208.00;;;6.87;100.00
4528;BME280;62320;51.520;6.818;2024-03-08T22:02:28;100210.53;;;6.84;100.00
4528;BME280;62320;51.520;6.818;2024-03-08T22:12:30;100206.25;;;6.78;100.00
4528;BME280;62320;51.520;6.818;2024-03-08T22:22:32;100195.94;;;6.72;100.00
4528;BME280;62320;51.520;6.818;2024-03-08T22:32:33;100195.00;;;6.61;100.00
4528;BME280;62320;51.520;6.818;2024-03-08T22:42:35;100189.78;;;6.49;100.00
4528;BME280;62320;51.520;6.818;2024-03-08T22:52:36;100189.75;;;6.46;100.00
4528;BME280;62320;51.520;6.818;2024-03-08T23:02:38;100186.25;;;6.36;100.00
4528;BME280;62320;51.520;6.818;2024-03-08T23:12:40;100175.94;;;6.29;100.00
4528;BME280;62320;51.520;6.818;2024-03-08T23:22:43;100163.88;;;6.17;100.00
4528;BME280;62320;51.520;6.818;2024-03-08T23:32:56;100152.69;;;6.11;100.00
4528;BME280;62320;51.520;6.818;2024-03-08T23:43:01;100139.75;;;5.99;100.00
4528;BME280;62320;51.520;6.818;2024-03-08T23:53:04;100136.28;;;5.94;100.00
